Time;durP1;ratioP1;P1;durP2;ratioP2;P2;SDS_P1;SDS_P2;PMS_P1;PMS_P2;Temp;Humidity;BMP_temperature;BMP_pressure;BME280_temperature;BME280_humidity;BME280_pressure;Samples;Min_cycle;Max_cycle;Signal;HPM_P1;HPM_P2
2022/12/04 00:01:13;;;;;;;37.47;17.33;;;1.10;99.90;;;;;;5024250;28;20072;-89
2022/12/04 00:03:40;;;;;;;35.03;16.63;;;1.10;99.90;;;;;;5019330;28;20040;-88
2022/12/04 00:06:10;;;;;;;35.47;15.55;;;1.10;99.90;;;;;;5018217;28;20068;-87
2022/12/04 00:08:36;;;;;;;36.80;17.25;;;1.10;99.90;;;;;;5034574;28;20036;-88
2022/12/04 00:11:04;;;;;;;36.05;15.57;;;1.10;99.90;;;;;;5036402;28;20039;-88
2022/12/04 00:13:31;;;;;;;39.97;16.75;;;1.10;99.90;;;;;;5037883;28;20457;-88
2022/12/04 00:15:58;;;;;;;41.20;17.52;;;1.10;99.90;;;;;;5019814;28;20037;-87
2022/12/04 00:18:23;;;;;;;41.95;17.52;;;1.10;99.90;;;;;;5021683;28;20095;-89
2022/12/04 00:20:49;;;;;;;38.42;16.88;;;1.00;99.90;;;;;;5018672;28;20487;-88
2022/12/04 00:23:15;;;;;;;32.45;16.52;;;1.10;99.90;;;;;;5019191;28;20059;-87
2022/12/04 00:25:41;;;;;;;37.75;17.05;;;1.10;99.90;;;;;;5020978;28;20455;-87
2022/12/04 00:28:07;;;;;;;40.13;17.88;;;1.00;99.90;;;;;;5020533;28;20036;-87
2022/12/04 00:30:33;;;;;;;38.88;17.00;;;1.00;99.90;;;;;;5038980;28;20064;-88
2022/12/04 00:33:01;;;;;;;34.53;16.80;;;1.00;99.90;;;;;;5023746;28;20111;-87
2022/12/04 00:35:27;;;;;;;36.13;16.98;;;1.00;99.90;;;;;;5020820;28;20041;-88
2022/12/04 00:37:52;;;;;;;40.22;18.52;;;1.00;99.90;;;;;;5035894;28;20091;-87
2022/12/04 00:40:18;;;;;;;37.72;17.95;;;1.10;99.90;;;;;;5036483;28;20037;-89
2022/12/04 00:42:44;;;;;;;43.00;18.40;;;1.00;99.90;;;;;;5032810;28;20049;-87
2022/12/04 00:45:10;;;;;;;39.40;18.55;;;1.10;99.90;;;;;;5034482;28;20036;-87
2022/12/04 00:47:35;;;;;;;39.53;17.15;;;1.10;99.90;;;;;;5017300;28;20044;-87
2022/12/04 00:50:01;;;;;;;38.63;18.33;;;1.10;99.90;;;;;;5032584;28;20499;-89
2022/12/04 00:52:27;;;;;;;37.20;18.08;;;1.00;99.90;;;;;;5033665;28;20048;-88
2022/12/04 00:54:53;;;;;;;39.47;17.42;;;1.00;99.90;;;;;;5038229;28;20037;-88
2022/12/04 00:57:18;;;;;;;36.90;17.92;;;1.00;99.90;;;;;;5034173;28;21050;-89
2022/12/04 00:59:44;;;;;;;38.10;17.90;;;1.00;99.90;;;;;;5023228;28;20069;-88
2022/12/04 01:02:10;;;;;;;40.53;18.40;;;1.00;99.90;;;;;;5020178;28;20072;-88
2022/12/04 01:04:35;;;;;;;41.35;18.02;;;0.90;99.90;;;;;;5018702;28;20178;-88
2022/12/04 01:07:01;;;;;;;42.45;19.90;;;0.90;99.90;;;;;;5023916;28;20151;-88
2022/12/04 01:09:27;;;;;;;39.97;18.88;;;1.00;99.90;;;;;;5028109;28;20067;-87
2022/12/04 01:11:52;;;;;;;42.45;19.20;;;1.00;99.90;;;;;;5022117;28;20516;-88
2022/12/04 01:14:22;;;;;;;38.42;18.75;;;0.90;99.90;;;;;;5040438;28;20156;-88
2022/12/04 01:16:47;;;;;;;35.88;18.85;;;0.90;99.90;;;;;;5035395;28;20116;-88
2022/12/04 01:19:16;;;;;;;38.10;18.60;;;0.90;99.90;;;;;;5021961;28;20044;-88
2022/12/04 01:21:42;;;;;;;39.05;17.65;;;1.00;99.90;;;;;;5037738;28;20044;-87
2022/12/04 01:24:07;;;;;;;37.53;17.75;;;0.90;99.90;;;;;;5023707;28;20060;-88
2022/12/04 01:26:34;;;;;;;40.10;19.27;;;1.00;99.90;;;;;;5038698;28;20511;-87
2022/12/04 01:29:00;;;;;;;41.22;19.50;;;0.90;99.90;;;;;;5027587;28;20041;-88
2022/12/04 01:31:26;;;;;;;41.45;18.88;;;0.90;99.90;;;;;;5023190;28;20134;-88
2022/12/04 01:33:52;;;;;;;37.53;18.38;;;0.90;99.90;;;;;;5021856;28;20405;-88
2022/12/04 01:36:21;;;;;;;39.65;19.05;;;0.90;99.90;;;;;;5024156;28;20064;-88
2022/12/04 01:38:47;;;;;;;38.38;18.77;;;0.90;99.90;;;;;;5040010;28;20040;-88
2022/12/04 01:41:18;;;;;;;40.30;19.38;;;0.90;99.90;;;;;;5021248;28;20055;-88
2022/12/04 01:43:44;;;;;;;39.92;19.20;;;0.90;99.90;;;;;;5038836;28;20081;-88
2022/12/04 01:46:10;;;;;;;47.08;21.00;;;0.90;99.90;;;;;;5040067;28;20696;-88
2022/12/04 01:48:50;;;;;;;43.30;20.60;;;0.90;99.90;;;;;;5039310;28;20044;-88
2022/12/04 01:51:18;;;;;;;40.85;19.90;;;0.90;99.90;;;;;;5023526;28;20570;-87
2022/12/04 01:53:51;;;;;;;38.22;18.77;;;0.80;99.90;;;;;;5020392;28;20053;-88
2022/12/04 01:56:18;;;;;;;45.10;20.27;;;0.80;99.90;;;;;;5023587;28;20342;-87
2022/12/04 01:58:49;;;;;;;40.50;20.40;;;0.80;99.90;;;;;;5041745;28;20548;-88
2022/12/04 02:01:15;;;;;;;45.38;21.05;;;0.80;99.90;;;;;;5041789;28;20040;-88
2022/12/04 02:03:41;;;;;;;45.45;21.58;;;0.80;99.90;;;;;;5021713;28;20041;-88
2022/12/04 02:06:07;;;;;;;44.00;21.27;;;0.80;99.90;;;;;;5042004;28;20098;-88
2022/12/04 02:08:34;;;;;;;41.78;19.63;;;0.80;99.90;;;;;;5038775;28;20399;-87
2022/12/04 02:11:15;;;;;;;46.90;21.83;;;0.80;99.90;;;;;;5039005;28;20049;-88
2022/12/04 02:14:09;;;;;;;47.35;22.58;;;0.80;99.90;;;;;;5022667;28;20041;-88
2022/12/04 02:16:47;;;;;;;45.30;22.08;;;0.80;99.90;;;;;;5019952;28;20045;-88
2022/12/04 02:19:34;;;;;;;48.13;22.30;;;0.80;99.90;;;;;;5020563;28;20056;-88
2022/12/04 02:22:13;;;;;;;48.60;22.35;;;0.80;99.90;;;;;;5019768;28;20045;-87
2022/12/04 02:25:10;;;;;;;49.15;22.88;;;0.70;99.90;;;;;;5021349;28;20489;-88
2022/12/04 02:28:00;;;;;;;49.28;21.52;;;0.70;99.90;;;;;;5018808;28;20480;-88
2022/12/04 02:30:29;;;;;;;46.05;20.85;;;0.70;99.90;;;;;;5022124;28;20052;-88
2022/12/04 02:33:06;;;;;;;47.78;22.58;;;0.70;99.90;;;;;;5038302;28;20215;-87
2022/12/04 02:36:02;;;;;;;46.72;22.17;;;0.70;99.90;;;;;;5022673;28;20086;-88
2022/12/04 02:38:36;;;;;;;50.55;22.00;;;0.70;99.90;;;;;;5022323;28;20040;-87
2022/12/04 02:41:11;;;;;;;46.28;22.92;;;0.60;99.90;;;;;;5037999;28;20041;-88
2022/12/04 02:43:40;;;;;;;46.33;22.45;;;0.70;99.90;;;;;;5038237;28;20078;-87
2022/12/04 02:46:15;;;;;;;50.40;23.10;;;0.60;99.90;;;;;;5018725;28;20124;-88
2022/12/04 02:48:45;;;;;;;56.70;23.90;;;0.60;99.90;;;;;;5018575;28;20041;-87
2022/12/04 02:51:14;;;;;;;48.78;21.33;;;0.60;99.90;;;;;;5020051;28;20668;-88
2022/12/04 02:53:45;;;;;;;47.55;21.92;;;0.60;99.90;;;;;;5035781;28;20154;-88
2022/12/04 02:56:15;;;;;;;46.65;22.77;;;0.60;99.90;;;;;;5020367;28;20565;-87
2022/12/04 02:59:19;;;;;;;47.45;23.17;;;0.60;99.90;;;;;;5036882;28;20043;-87
2022/12/04 03:01:50;;;;;;;48.75;22.65;;;0.60;99.90;;;;;;5013559;28;20582;-88
2022/12/04 03:04:23;;;;;;;48.70;22.50;;;0.60;99.90;;;;;;5016507;28;20420;-88
2022/12/04 03:06:54;;;;;;;57.85;23.90;;;0.60;99.90;;;;;;5018591;28;20167;-88
2022/12/04 03:09:33;;;;;;;50.58;24.15;;;0.50;99.90;;;;;;5037120;28;20948;-88
2022/12/04 03:12:43;;;;;;;46.83;23.75;;;0.50;99.90;;;;;;5034623;28;20033;-87
2022/12/04 03:15:18;;;;;;;50.83;23.75;;;0.50;99.90;;;;;;5005511;28;20135;-87
2022/12/04 03:17:57;;;;;;;51.10;21.48;;;0.50;99.90;;;;;;5034892;28;20124;-87
2022/12/04 03:20:23;;;;;;;47.42;22.63;;;0.50;99.90;;;;;;5016859;28;20128;-86
2022/12/04 03:22:58;;;;;;;48.30;24.38;;;0.50;99.90;;;;;;5020102;28;20093;-88
2022/12/04 03:25:32;;;;;;;56.33;23.88;;;0.50;99.90;;;;;;5039137;28;20036;-88
2022/12/04 03:28:06;;;;;;;53.63;22.40;;;0.50;99.90;;;;;;5017236;28;20095;-87
2022/12/04 03:30:56;;;;;;;52.20;22.38;;;0.50;99.90;;;;;;5032571;28;20045;-88
2022/12/04 03:33:31;;;;;;;48.22;22.88;;;0.50;99.90;;;;;;5037066;28;20040;-87
2022/12/04 03:36:13;;;;;;;;;;;0.50;99.90;;;;;;5020411;28;20440;-87
2022/12/04 03:38:45;;;;;;;46.42;22.50;;;0.50;99.90;;;;;;5026659;28;20075;-87
2022/12/04 03:41:41;;;;;;;53.22;24.30;;;0.50;99.90;;;;;;5037658;28;20037;-87
2022/12/04 03:44:16;;;;;;;55.42;24.85;;;0.50;99.90;;;;;;5022059;28;20029;-87
2022/12/04 03:46:54;;;;;;;;;;;0.50;99.90;;;;;;5034573;28;20122;-88
2022/12/04 03:49:35;;;;;;;52.13;24.77;;;0.50;99.90;;;;;;5016562;28;20351;-90
2022/12/04 03:52:13;;;;;;;51.60;24.25;;;0.50;99.90;;;;;;5036948;28;20063;-87
2022/12/04 03:54:58;;;;;;;54.60;25.95;;;0.40;99.90;;;;;;5014867;28;20196;-88
2022/12/04 03:57:30;;;;;;;51.53;23.77;;;0.40;99.90;;;;;;5016474;28;20128;-87
2022/12/04 04:00:04;;;;;;;53.17;24.67;;;0.40;99.90;;;;;;5037041;28;20125;-88
2022/12/04 04:02:35;;;;;;;51.88;24.45;;;0.40;99.90;;;;;;5019762;28;20041;-88
2022/12/04 04:05:07;;;;;;;55.05;24.98;;;0.40;99.90;;;;;;5036338;28;20037;-88
2022/12/04 04:07:43;;;;;;;56.85;24.98;;;0.40;99.90;;;;;;5035276;28;20041;-87
2022/12/04 04:10:19;;;;;;;51.20;24.42;;;0.40;99.90;;;;;;5035032;28;20043;-88
2022/12/04 04:24:13;;;;;;;53.42;25.17;;;0.40;99.90;;;;;;5028228;28;20075;-88
2022/12/04 04:24:19;;;;;;;49.90;23.33;;;0.40;99.90;;;;;;5042865;28;20141;-88
2022/12/04 04:26:47;;;;;;;51.30;23.88;;;0.40;99.90;;;;;;5035725;28;20558;-87
2022/12/04 04:29:13;;;;;;;50.08;23.80;;;0.40;99.90;;;;;;5036169;28;20139;-87
2022/12/04 04:31:44;;;;;;;48.03;22.90;;;0.40;99.90;;;;;;5021584;28;20136;-88
2022/12/04 04:34:26;;;;;;;49.83;23.83;;;0.40;99.90;;;;;;5019901;28;20077;-88
2022/12/04 04:37:07;;;;;;;50.80;21.75;;;0.40;99.90;;;;;;5034556;28;20032;-87
2022/12/04 04:39:47;;;;;;;53.67;23.00;;;0.40;99.90;;;;;;5018596;28;20052;-87
2022/12/04 04:42:28;;;;;;;50.85;22.38;;;0.40;99.90;;;;;;5015588;28;20045;-88
2022/12/04 04:45:35;;;;;;;50.20;23.83;;;0.40;99.90;;;;;;5015463;28;20044;-88
2022/12/04 04:48:14;;;;;;;50.20;23.55;;;0.40;99.90;;;;;;4979610;28;20029;-88
2022/12/04 04:50:41;;;;;;;51.78;23.38;;;0.40;99.90;;;;;;5028066;28;20106;-87
2022/12/04 04:53:25;;;;;;;49.47;22.92;;;0.40;99.90;;;;;;5018418;28;20041;-87
2022/12/04 04:55:51;;;;;;;51.85;24.00;;;0.40;99.90;;;;;;5017704;28;20437;-87
2022/12/04 04:58:19;;;;;;;52.05;24.23;;;0.40;99.90;;;;;;5016718;28;20057;-87
2022/12/04 05:00:59;;;;;;;49.05;23.77;;;0.40;99.90;;;;;;5034537;28;20541;-87
2022/12/04 05:03:26;;;;;;;50.78;23.30;;;0.40;99.90;;;;;;5016456;28;20514;-88
2022/12/04 05:05:52;;;;;;;51.38;24.02;;;0.40;99.90;;;;;;5021115;28;20044;-87
2022/12/04 05:08:18;;;;;;;51.65;23.38;;;0.40;99.90;;;;;;5018059;28;20045;-87
2022/12/04 05:10:43;;;;;;;51.15;22.60;;;0.40;99.90;;;;;;5019606;28;20041;-88
2022/12/04 05:13:11;;;;;;;52.10;24.02;;;0.40;99.90;;;;;;5019189;28;20102;-88
2022/12/04 05:15:45;;;;;;;53.13;23.85;;;0.40;99.90;;;;;;5033810;28;20120;-87
2022/12/04 05:18:10;;;;;;;47.80;22.73;;;0.40;99.90;;;;;;5017179;28;20048;-88
2022/12/04 05:20:39;;;;;;;52.22;22.95;;;0.40;99.90;;;;;;5032464;28;20488;-88
2022/12/04 05:23:06;;;;;;;50.72;22.02;;;0.40;99.90;;;;;;5021152;28;20160;-87
2022/12/04 05:25:32;;;;;;;55.10;23.50;;;0.40;99.90;;;;;;5018265;28;20071;-88
2022/12/04 05:27:57;;;;;;;53.42;23.30;;;0.40;99.90;;;;;;5016693;28;20079;-87
2022/12/04 05:30:23;;;;;;;49.22;22.15;;;0.40;99.90;;;;;;5014951;28;20546;-88
2022/12/04 05:32:49;;;;;;;51.75;23.13;;;0.40;99.90;;;;;;5019370;28;20049;-88
2022/12/04 05:35:15;;;;;;;50.70;24.27;;;0.40;99.90;;;;;;5017957;28;20041;-87
2022/12/04 05:37:40;;;;;;;51.17;23.30;;;0.40;99.90;;;;;;5036695;28;20456;-87
2022/12/04 05:40:07;;;;;;;53.63;22.92;;;0.40;99.90;;;;;;5018043;28;20055;-88
2022/12/04 05:42:32;;;;;;;47.63;23.10;;;0.40;99.90;;;;;;5031809;28;20083;-87
2022/12/04 05:44:58;;;;;;;51.53;23.35;;;0.40;99.90;;;;;;5020773;28;20128;-88
2022/12/04 05:47:24;;;;;;;50.58;24.38;;;0.40;99.90;;;;;;5023026;28;20450;-87
2022/12/04 05:49:49;;;;;;;53.58;23.70;;;0.40;99.90;;;;;;5032328;28;20061;-87
2022/12/04 05:52:15;;;;;;;52.30;23.50;;;0.50;99.90;;;;;;5021798;28;20068;-88
2022/12/04 05:54:41;;;;;;;51.38;23.23;;;0.50;99.90;;;;;;5038553;28;20041;-87
2022/12/04 05:57:07;;;;;;;49.38;23.15;;;0.50;99.90;;;;;;5021737;28;20067;-87
2022/12/04 05:59:33;;;;;;;50.33;22.48;;;0.50;99.90;;;;;;5020179;28;20033;-87
2022/12/04 06:01:59;;;;;;;51.20;22.92;;;0.50;99.90;;;;;;5030016;28;20047;-87
2022/12/04 06:04:25;;;;;;;48.55;21.52;;;0.50;99.90;;;;;;5020865;28;20064;-86
2022/12/04 06:06:52;;;;;;;49.78;23.02;;;0.50;99.90;;;;;;5034856;28;20428;-86
2022/12/04 06:09:18;;;;;;;49.83;23.02;;;0.50;99.90;;;;;;5021498;28;20119;-87
2022/12/04 06:11:43;;;;;;;45.08;22.33;;;0.50;99.90;;;;;;5019999;28;20037;-88
2022/12/04 06:14:12;;;;;;;52.88;22.60;;;0.50;99.90;;;;;;5038184;28;20075;-88
2022/12/04 06:16:41;;;;;;;49.58;22.95;;;0.60;99.90;;;;;;5025267;28;20348;-87
2022/12/04 06:19:13;;;;;;;49.25;23.88;;;0.60;99.90;;;;;;5022190;28;20041;-87
2022/12/04 06:21:42;;;;;;;52.00;23.48;;;0.60;99.90;;;;;;5025015;28;20453;-87
2022/12/04 06:24:14;;;;;;;53.42;23.23;;;0.60;99.90;;;;;;5022655;28;20057;-87
2022/12/04 06:26:40;;;;;;;52.40;24.40;;;0.60;99.90;;;;;;5018900;28;20325;-88
2022/12/04 06:29:06;;;;;;;49.72;23.08;;;0.60;99.90;;;;;;5028701;28;20069;-89
2022/12/04 06:31:34;;;;;;;53.72;24.10;;;0.60;99.90;;;;;;5028309;28;20152;-87
2022/12/04 06:34:00;;;;;;;54.83;24.15;;;0.60;99.90;;;;;;5036988;28;20461;-87
2022/12/04 06:36:29;;;;;;;51.65;24.30;;;0.60;99.90;;;;;;5019601;28;20108;-87
2022/12/04 06:38:56;;;;;;;50.28;24.23;;;0.60;99.90;;;;;;5039553;28;20240;-87
2022/12/04 06:41:22;;;;;;;49.20;22.63;;;0.50;99.90;;;;;;5026658;28;20040;-86
2022/12/04 06:43:51;;;;;;;56.42;23.70;;;0.60;99.90;;;;;;5021145;28;20049;-87
2022/12/04 06:46:20;;;;;;;55.63;25.17;;;0.60;99.90;;;;;;5033057;28;20178;-88
2022/12/04 06:48:47;;;;;;;55.85;24.77;;;0.60;99.90;;;;;;5026148;28;20075;-88
2022/12/04 06:51:20;;;;;;;49.53;21.90;;;0.60;99.90;;;;;;5021137;28;20041;-88
2022/12/04 06:53:49;;;;;;;54.15;24.30;;;0.60;99.90;;;;;;5018920;28;20452;-88
2022/12/04 06:56:18;;;;;;;53.10;24.45;;;0.50;99.90;;;;;;5035028;28;20270;-87
2022/12/04 06:58:45;;;;;;;52.17;24.35;;;0.60;99.90;;;;;;5022878;28;20110;-88
2022/12/04 07:01:14;;;;;;;57.50;24.98;;;0.60;99.90;;;;;;5023067;28;20029;-87
2022/12/04 07:03:40;;;;;;;58.80;25.30;;;0.50;99.90;;;;;;5026269;28;20091;-88
2022/12/04 07:06:12;;;;;;;52.78;24.38;;;0.60;99.90;;;;;;5022102;28;20120;-88
2022/12/04 07:08:37;;;;;;;58.83;24.67;;;0.50;99.90;;;;;;5035024;28;20578;-87
2022/12/04 07:11:03;;;;;;;51.22;23.30;;;0.60;99.90;;;;;;5020764;28;20079;-88
2022/12/04 07:13:28;;;;;;;56.92;25.95;;;0.60;99.90;;;;;;5039821;28;20074;-87
2022/12/04 07:15:54;;;;;;;53.47;24.88;;;0.60;99.90;;;;;;5019097;28;20049;-88
2022/12/04 07:18:20;;;;;;;54.03;24.00;;;0.60;99.90;;;;;;5023832;28;20850;-88
2022/12/04 07:20:46;;;;;;;58.03;25.67;;;0.60;99.90;;;;;;5023496;28;20050;-89
2022/12/04 07:23:11;;;;;;;59.38;26.15;;;0.60;99.90;;;;;;5025686;28;20439;-88
2022/12/04 07:25:40;;;;;;;56.92;25.10;;;0.50;99.90;;;;;;5035641;28;20044;-88
2022/12/04 07:28:06;;;;;;;60.45;24.73;;;0.60;99.90;;;;;;5022733;28;20048;-88
2022/12/04 07:30:32;;;;;;;54.28;23.63;;;0.60;99.90;;;;;;5022834;28;20086;-88
2022/12/04 07:32:57;;;;;;;53.22;23.80;;;0.60;99.90;;;;;;5033445;28;20682;-88
2022/12/04 07:35:26;;;;;;;57.00;26.17;;;0.60;99.90;;;;;;5021180;28;20040;-88
2022/12/04 07:37:52;;;;;;;55.67;24.67;;;0.60;99.90;;;;;;5017004;28;20111;-89
2022/12/04 07:40:17;;;;;;;51.83;23.45;;;0.60;99.90;;;;;;5023523;28;20032;-88
2022/12/04 07:42:43;;;;;;;55.17;23.95;;;0.60;99.90;;;;;;5035989;28;20415;-88
2022/12/04 07:45:09;;;;;;;55.17;24.70;;;0.60;99.90;;;;;;5022923;28;20033;-88
2022/12/04 07:47:35;;;;;;;54.63;24.55;;;0.60;99.90;;;;;;5026177;28;20182;-88
2022/12/04 07:50:02;;;;;;;58.50;24.80;;;0.60;99.90;;;;;;5018423;28;20098;-88
2022/12/04 07:52:27;;;;;;;53.40;24.92;;;0.60;99.90;;;;;;5025534;28;20320;-89
2022/12/04 07:54:53;;;;;;;57.13;24.25;;;0.60;99.90;;;;;;5034043;28;20115;-90
2022/12/04 07:57:19;;;;;;;53.22;23.20;;;0.60;99.90;;;;;;5034440;28;20320;-89
2022/12/04 07:59:44;;;;;;;57.67;26.02;;;0.60;99.90;;;;;;5023223;28;20546;-88
2022/12/04 08:02:12;;;;;;;53.97;24.80;;;0.60;99.90;;;;;;5035524;28;20560;-89
2022/12/04 08:04:38;;;;;;;57.85;26.20;;;0.60;99.90;;;;;;5022137;28;20186;-88
2022/12/04 08:07:03;;;;;;;60.70;25.10;;;0.70;99.90;;;;;;5020649;28;20146;-87
2022/12/04 08:09:29;;;;;;;54.30;22.85;;;0.70;99.90;;;;;;5019372;28;20051;-88
2022/12/04 08:11:55;;;;;;;49.50;23.35;;;0.70;99.90;;;;;;5024333;28;20569;-89
2022/12/04 08:14:21;;;;;;;50.35;23.10;;;0.70;99.90;;;;;;5028873;28;20106;-88
2022/12/04 08:16:48;;;;;;;57.65;24.52;;;0.70;99.90;;;;;;5037287;28;20041;-88
2022/12/04 08:19:14;;;;;;;53.17;24.38;;;0.70;99.90;;;;;;5021253;28;20496;-88
2022/12/04 08:21:39;;;;;;;53.47;23.60;;;0.80;99.90;;;;;;5033680;28;20044;-88
2022/12/04 08:24:06;;;;;;;54.42;23.73;;;0.80;99.90;;;;;;5027641;28;20048;-88
2022/12/04 08:26:32;;;;;;;55.30;23.48;;;0.80;99.90;;;;;;5034471;28;20056;-89
2022/12/04 08:29:01;;;;;;;45.28;22.70;;;0.80;99.90;;;;;;5018724;28;20074;-89
2022/12/04 08:31:29;;;;;;;52.97;23.13;;;0.90;99.90;;;;;;5028466;28;20359;-88
2022/12/04 08:33:58;;;;;;;53.88;23.67;;;0.90;99.90;;;;;;5021004;28;20044;-90
2022/12/04 08:36:25;;;;;;;50.35;22.80;;;0.90;99.90;;;;;;5036747;28;20052;-87
2022/12/04 08:38:51;;;;;;;53.10;23.95;;;0.90;99.90;;;;;;5018101;28;20045;-89
2022/12/04 08:41:22;;;;;;;51.50;24.25;;;0.90;99.90;;;;;;5037599;28;20152;-88
2022/12/04 08:43:48;;;;;;;51.15;23.08;;;1.00;99.90;;;;;;5037148;28;20071;-88
2022/12/04 08:46:18;;;;;;;48.72;22.55;;;1.00;99.90;;;;;;5041155;28;20032;-89
2022/12/04 08:48:44;;;;;;;51.85;23.45;;;1.00;99.90;;;;;;5036578;28;20093;-89
2022/12/04 08:51:19;;;;;;;51.75;24.20;;;1.10;99.90;;;;;;5018661;28;20043;-88
2022/12/04 08:53:45;;;;;;;51.08;23.30;;;1.10;99.90;;;;;;5053998;28;20077;-88
2022/12/04 08:56:11;;;;;;;50.20;22.50;;;1.10;99.90;;;;;;5043512;28;20079;-89
2022/12/04 08:58:37;;;;;;;50.38;22.75;;;1.10;99.90;;;;;;5021107;28;20060;-89
2022/12/04 09:01:11;;;;;;;50.85;22.65;;;1.10;99.90;;;;;;5022370;28;20494;-90
2022/12/04 09:03:37;;;;;;;47.40;22.23;;;1.10;99.90;;;;;;5023407;28;20036;-88
2022/12/04 09:06:11;;;;;;;47.88;23.20;;;1.10;99.90;;;;;;5032903;28;20070;-89
2022/12/04 09:08:37;;;;;;;45.92;21.38;;;1.20;99.90;;;;;;5017538;28;20536;-89
2022/12/04 09:11:11;;;;;;;49.10;22.30;;;1.20;99.90;;;;;;5022468;28;20037;-89
2022/12/04 09:13:38;;;;;;;;;;;1.20;99.90;;;;;;5021676;28;20093;-87
2022/12/04 09:16:06;;;;;;;48.13;23.80;;;1.20;99.90;;;;;;5019203;28;20384;-88
2022/12/04 09:18:32;;;;;;;48.33;23.00;;;1.20;99.90;;;;;;5018465;28;20048;-88
2022/12/04 09:21:00;;;;;;;49.92;23.38;;;1.30;99.90;;;;;;5027948;28;20037;-88
2022/12/04 09:23:26;;;;;;;49.22;23.17;;;1.30;99.90;;;;;;5019720;28;20543;-88
2022/12/04 09:25:53;;;;;;;49.20;22.65;;;1.30;99.90;;;;;;5018636;28;20478;-89
2022/12/04 09:28:19;;;;;;;46.80;22.20;;;1.30;99.90;;;;;;5023239;28;20025;-89
2022/12/04 09:30:58;;;;;;;46.83;21.92;;;1.30;99.90;;;;;;5030958;28;20111;-88
2022/12/04 09:33:29;;;;;;;49.00;22.98;;;1.40;99.90;;;;;;5025586;28;20836;-89
2022/12/04 09:35:58;;;;;;;48.97;23.45;;;1.40;99.90;;;;;;5025762;28;20079;-89
2022/12/04 09:38:26;;;;;;;50.13;22.67;;;1.50;99.90;;;;;;5018494;28;20095;-89
2022/12/04 09:41:14;;;;;;;47.42;21.90;;;1.50;99.90;;;;;;5021414;28;20060;-89
2022/12/04 09:43:50;;;;;;;42.47;20.90;;;1.50;99.90;;;;;;5035089;28;20036;-89
2022/12/04 09:46:43;;;;;;;45.45;21.80;;;1.60;99.90;;;;;;5037776;28;20041;-90
2022/12/04 09:49:19;;;;;;;40.97;21.48;;;1.50;99.90;;;;;;5037541;28;20045;-89
2022/12/04 09:51:46;;;;;;;46.45;22.05;;;1.60;99.90;;;;;;5020815;28;20086;-89
2022/12/04 09:54:17;;;;;;;44.53;21.23;;;1.60;99.90;;;;;;5020636;28;20059;-89
2022/12/04 09:57:04;;;;;;;41.88;21.33;;;1.70;99.90;;;;;;5052351;28;20071;-90
2022/12/04 09:59:31;;;;;;;40.95;20.52;;;1.70;99.90;;;;;;5022414;28;20041;-90
2022/12/04 10:02:27;;;;;;;44.03;22.50;;;1.70;99.90;;;;;;5037549;28;20102;-90
2022/12/04 10:04:55;;;;;;;40.35;19.58;;;1.80;99.90;;;;;;5024421;28;20593;-88
2022/12/04 10:07:47;;;;;;;37.50;19.73;;;1.80;99.90;;;;;;5033103;28;20072;-89
2022/12/04 10:10:36;;;;;;;44.95;20.10;;;1.90;99.90;;;;;;5034933;28;20492;-89
2022/12/04 10:13:11;;;;;;;41.55;19.50;;;1.90;99.90;;;;;;5021013;28;20132;-89
2022/12/04 10:15:59;;;;;;;41.17;20.50;;;2.00;99.90;;;;;;5020097;28;20033;-89
2022/12/04 10:19:06;;;;;;;36.53;17.63;;;2.00;99.90;;;;;;5036987;28;20175;-90
2022/12/04 10:21:48;;;;;;;37.25;18.13;;;2.10;99.90;;;;;;5003829;28;20063;-89
2022/12/04 10:24:14;;;;;;;34.35;17.83;;;2.10;99.90;;;;;;5019802;28;20251;-90
2022/12/04 10:26:44;;;;;;;37.13;18.27;;;2.20;99.90;;;;;;5038335;28;20041;-88
2022/12/04 10:29:29;;;;;;;35.55;18.60;;;2.20;99.90;;;;;;5038550;28;20108;-89
2022/12/04 10:32:01;;;;;;;35.20;17.67;;;2.30;99.90;;;;;;5039783;28;20574;-89
2022/12/04 10:34:30;;;;;;;31.13;16.95;;;2.30;99.90;;;;;;5021145;28;20070;-89
2022/12/04 10:37:08;;;;;;;33.08;16.55;;;2.30;99.90;;;;;;5020316;28;20610;-90
2022/12/04 10:39:41;;;;;;;35.83;17.40;;;2.30;99.90;;;;;;5019653;28;20130;-88
2022/12/04 10:42:30;;;;;;;33.25;16.60;;;2.40;99.90;;;;;;5037023;28;20204;-90
2022/12/04 10:44:56;;;;;;;32.85;16.25;;;2.40;99.90;;;;;;5024341;28;20049;-88
2022/12/04 10:47:23;;;;;;;30.85;16.17;;;2.50;99.90;;;;;;5019351;28;20059;-89
2022/12/04 10:49:58;;;;;;;33.65;16.60;;;2.50;99.90;;;;;;5020096;28;20040;-88
2022/12/04 10:52:23;;;;;;;31.95;17.08;;;2.50;99.90;;;;;;5023706;28;20123;-88
2022/12/04 10:55:00;;;;;;;29.52;15.52;;;2.50;99.90;;;;;;5023399;28;20175;-89
2022/12/04 10:57:41;;;;;;;30.33;15.57;;;2.50;99.90;;;;;;5036626;28;20037;-89
2022/12/04 11:00:31;;;;;;;29.63;15.15;;;2.40;99.90;;;;;;5019261;28;20119;-89
2022/12/04 11:03:22;;;;;;;34.88;16.65;;;2.50;99.90;;;;;;5037983;28;20048;-89
2022/12/04 11:06:08;;;;;;;31.38;16.30;;;2.50;99.90;;;;;;5009599;28;20074;-90
2022/12/04 11:08:48;;;;;;;29.35;16.17;;;2.50;99.90;;;;;;5019935;28;20043;-89
2022/12/04 11:11:23;;;;;;;33.40;15.95;;;2.50;99.90;;;;;;5019275;28;20068;-90
2022/12/04 11:14:12;;;;;;;29.17;15.02;;;2.60;99.90;;;;;;5038645;28;20041;-89
2022/12/04 11:16:40;;;;;;;29.13;16.30;;;2.60;99.90;;;;;;5020944;28;20051;-90
2022/12/04 11:19:27;;;;;;;26.42;15.07;;;2.60;99.90;;;;;;5020979;28;20135;-90
2022/12/04 11:21:59;;;;;;;27.38;13.60;;;2.60;99.90;;;;;;5021469;28;20044;-90
2022/12/04 11:24:36;;;;;;;24.25;14.00;;;2.60;99.90;;;;;;5015571;28;20088;-89
2022/12/04 11:27:07;;;;;;;25.85;13.52;;;2.50;99.90;;;;;;5016730;28;20060;-90
2022/12/04 11:29:41;;;;;;;24.98;13.90;;;2.60;99.90;;;;;;5020366;28;20516;-89
2022/12/04 11:32:25;;;;;;;24.45;12.77;;;2.60;99.90;;;;;;5037431;28;20040;-88
2022/12/04 11:34:54;;;;;;;23.25;13.35;;;2.50;99.90;;;;;;5018211;28;20037;-89
2022/12/04 11:37:25;;;;;;;21.85;12.70;;;2.60;99.90;;;;;;5019840;28;20186;-90
2022/12/04 11:39:52;;;;;;;23.23;12.55;;;2.50;99.90;;;;;;5020283;28;20356;-89
2022/12/04 11:42:26;;;;;;;20.17;11.45;;;2.50;99.90;;;;;;5023353;28;20132;-89
2022/12/04 11:45:18;;;;;;;22.30;13.00;;;2.60;99.90;;;;;;5022393;28;20423;-89
2022/12/04 11:48:03;;;;;;;23.80;12.65;;;2.50;99.90;;;;;;5023187;28;20595;-90
2022/12/04 11:50:45;;;;;;;24.83;13.45;;;2.50;99.90;;;;;;5014749;28;20476;-90
2022/12/04 11:53:17;;;;;;;24.55;12.93;;;2.60;99.90;;;;;;5035998;28;20703;-89
2022/12/04 11:56:12;;;;;;;25.58;13.07;;;2.60;99.90;;;;;;5018540;28;20068;-89
2022/12/04 11:58:45;;;;;;;23.08;12.77;;;2.60;99.90;;;;;;5029748;28;20044;-89
2022/12/04 12:01:16;;;;;;;21.90;12.52;;;2.60;99.90;;;;;;5034742;28;20037;-89
2022/12/04 12:04:10;;;;;;;23.90;13.75;;;2.60;99.90;;;;;;5021516;28;20534;-89
2022/12/04 12:07:09;;;;;;;24.63;13.68;;;2.60;99.90;;;;;;5019598;28;20029;-90
2022/12/04 12:09:37;;;;;;;27.02;13.48;;;2.60;99.90;;;;;;5040684;28;20045;-90
2022/12/04 12:12:18;;;;;;;24.02;13.40;;;2.60;99.90;;;;;;5020433;28;20558;-88
2022/12/04 12:15:09;;;;;;;24.35;13.32;;;2.60;99.90;;;;;;5022296;28;20178;-89
2022/12/04 12:18:10;;;;;;;25.60;14.15;;;2.70;99.90;;;;;;5026792;28;20088;-89
2022/12/04 12:21:04;;;;;;;24.33;13.95;;;2.70;99.90;;;;;;5018315;28;20045;-90
2022/12/04 12:23:49;;;;;;;23.58;12.82;;;2.70;99.90;;;;;;5023901;28;20088;-91
2022/12/04 12:26:16;;;;;;;23.23;13.63;;;2.70;99.90;;;;;;5035510;28;20037;-90
2022/12/04 12:29:04;;;;;;;26.35;13.13;;;2.80;99.90;;;;;;5022618;28;20118;-89
2022/12/04 12:31:56;;;;;;;22.63;12.88;;;2.80;99.90;;;;;;5017139;28;20034;-90
2022/12/04 12:34:48;;;;;;;24.83;13.32;;;2.80;99.90;;;;;;5017903;28;20041;-90
2022/12/04 12:37:42;;;;;;;26.25;13.32;;;2.70;99.90;;;;;;5012838;28;20049;-89
2022/12/04 12:40:09;;;;;;;23.43;12.83;;;2.70;99.90;;;;;;5019518;28;20040;-89
2022/12/04 12:42:52;;;;;;;23.15;13.27;;;2.70;99.90;;;;;;5023229;28;20294;-88
2022/12/04 12:45:23;;;;;;;24.83;13.75;;;2.80;99.90;;;;;;5035579;28;20037;-90
2022/12/04 12:47:54;;;;;;;23.48;13.80;;;2.80;99.90;;;;;;5024357;28;20041;-89
2022/12/04 12:50:27;;;;;;;26.20;14.70;;;2.70;99.90;;;;;;5023530;28;20060;-89
2022/12/04 12:53:10;;;;;;;24.58;13.75;;;2.80;99.90;;;;;;5015646;28;20068;-89
2022/12/04 12:55:42;;;;;;;23.15;12.93;;;2.80;99.90;;;;;;5020075;28;20447;-88
2022/12/04 12:58:23;;;;;;;24.83;14.25;;;2.80;99.90;;;;;;5024736;28;20041;-90
2022/12/04 13:01:02;;;;;;;23.60;12.93;;;2.80;99.90;;;;;;5019961;28;20052;-89
2022/12/04 13:03:33;;;;;;;27.27;13.82;;;2.80;99.90;;;;;;5040623;28;20045;-89
2022/12/04 13:06:04;;;;;;;24.17;13.25;;;2.80;99.90;;;;;;5021489;28;20051;-90
2022/12/04 13:09:01;;;;;;;25.95;14.23;;;2.80;99.90;;;;;;5024417;28;20063;-89
2022/12/04 13:11:28;;;;;;;25.15;14.07;;;2.80;99.90;;;;;;5037453;28;20970;-89
2022/12/04 13:13:58;;;;;;;25.98;14.00;;;2.80;99.90;;;;;;5025554;28;20037;-90